createdAt,value
2019-05-19T00:00:11.981Z,76.30
2019-05-19T00:02:40.933Z,76.40
2019-05-19T00:05:09.903Z,76.50
2019-05-19T00:07:38.315Z,76.70
2019-05-19T00:10:07.090Z,76.80
2019-05-19T00:12:35.871Z,77.20
2019-05-19T00:15:05.534Z,77.50
2019-05-19T00:17:33.978Z,77.60
2019-05-19T00:20:02.386Z,77.60
2019-05-19T00:22:30.805Z,77.70
2019-05-19T00:24:59.210Z,77.90
2019-05-19T00:27:27.621Z,77.90
2019-05-19T00:29:56.035Z,77.90
2019-05-19T00:32:24.451Z,78.30
2019-05-19T00:34:52.849Z,78.40
2019-05-19T00:37:21.297Z,78.60
2019-05-19T00:39:49.698Z,78.60
2019-05-19T00:42:18.118Z,78.80
2019-05-19T00:44:46.518Z,78.60
2019-05-19T00:47:14.947Z,78.60
2019-05-19T00:49:43.354Z,78.80
2019-05-19T00:52:11.766Z,78.80
2019-05-19T00:54:40.170Z,79.10
2019-05-19T00:57:08.653Z,79.10
2019-05-19T00:59:38.119Z,78.90
2019-05-19T01:02:06.538Z,79.00
2019-05-19T01:04:34.942Z,79.20
2019-05-19T01:07:03.686Z,79.10
2019-05-19T01:09:32.114Z,79.30
2019-05-19T01:12:00.558Z,79.40
2019-05-19T01:14:29.210Z,79.50
2019-05-19T01:16:57.623Z,79.70
2019-05-19T01:19:26.022Z,79.70
2019-05-19T01:21:55.315Z,79.80
2019-05-19T01:24:23.723Z,79.80
2019-05-19T01:26:52.147Z,79.80
2019-05-19T01:29:20.620Z,79.80
2019-05-19T01:31:49.214Z,80.00
2019-05-19T01:34:17.715Z,80.00
2019-05-19T01:36:46.154Z,80.10
2019-05-19T01:39:14.582Z,80.10
2019-05-19T01:41:43.022Z,80.30
2019-05-19T01:44:30.789Z,80.40
2019-05-19T01:46:59.532Z,80.50
2019-05-19T01:49:27.964Z,80.50
2019-05-19T01:51:56.375Z,80.70
2019-05-19T01:54:24.790Z,80.80
2019-05-19T01:56:53.198Z,80.90
2019-05-19T01:59:21.639Z,80.90
2019-05-19T02:01:50.078Z,81.00
2019-05-19T02:04:18.510Z,81.10
2019-05-19T02:06:46.917Z,81.60
2019-05-19T02:09:15.337Z,81.20
2019-05-19T02:11:43.771Z,81.20
2019-05-19T02:14:12.230Z,81.10
2019-05-19T02:16:40.652Z,81.20
2019-05-19T02:19:09.103Z,81.90
2019-05-19T02:21:37.786Z,81.10
2019-05-19T02:24:06.219Z,81.20
2019-05-19T02:26:34.637Z,81.00
2019-05-19T02:29:03.298Z,80.90
2019-05-19T02:31:31.716Z,81.60
2019-05-19T02:34:00.453Z,80.80
2019-05-19T02:36:28.936Z,81.00
2019-05-19T02:38:57.957Z,81.00
2019-05-19T02:41:27.762Z,81.00
2019-05-19T02:43:57.118Z,81.20
2019-05-19T02:46:26.279Z,81.20
2019-05-19T02:48:56.453Z,81.40
2019-05-19T02:51:26.877Z,81.40
2019-05-19T02:53:56.223Z,81.60
2019-05-19T02:56:26.385Z,81.60
2019-05-19T02:58:56.011Z,81.60
2019-05-19T03:01:24.419Z,81.80
2019-05-19T03:03:52.829Z,81.80
2019-05-19T03:06:21.269Z,81.80
2019-05-19T03:08:49.694Z,81.90
2019-05-19T03:11:18.163Z,82.00
2019-05-19T03:13:46.605Z,82.00
2019-05-19T03:16:15.083Z,82.10
2019-05-19T03:18:44.188Z,82.10
2019-05-19T03:21:12.674Z,82.20
2019-05-19T03:23:41.172Z,82.10
2019-05-19T03:26:09.588Z,82.10
2019-05-19T03:28:37.988Z,82.10
2019-05-19T03:31:08.038Z,82.20
2019-05-19T03:33:41.253Z,82.20
2019-05-19T03:36:09.755Z,82.30
2019-05-19T03:38:38.165Z,82.30
2019-05-19T03:41:06.581Z,82.40
2019-05-19T03:43:34.984Z,82.40
2019-05-19T03:46:04.114Z,82.40
2019-05-19T03:48:32.519Z,82.60
2019-05-19T03:51:00.949Z,82.60
2019-05-19T03:53:29.354Z,82.60
2019-05-19T03:55:57.790Z,82.50
2019-05-19T03:58:26.207Z,82.50
2019-05-19T04:00:54.639Z,82.60
2019-05-19T04:03:23.047Z,82.60
2019-05-19T04:05:51.551Z,82.70
2019-05-19T04:08:19.963Z,83.50
2019-05-19T04:10:48.395Z,82.70
2019-05-19T04:13:16.799Z,82.60
2019-05-19T04:15:45.275Z,82.80
2019-05-19T04:18:13.720Z,82.80
2019-05-19T04:20:42.314Z,82.80
2019-05-19T04:23:10.735Z,82.80
2019-05-19T04:25:39.471Z,82.90
2019-05-19T04:28:07.880Z,82.90
2019-05-19T04:30:36.307Z,82.90
2019-05-19T04:33:04.720Z,82.80
2019-05-19T04:35:33.151Z,82.80
2019-05-19T04:38:01.546Z,82.60
2019-05-19T04:40:29.981Z,82.60
2019-05-19T04:42:58.382Z,82.50
2019-05-19T04:45:27.215Z,82.30
2019-05-19T04:47:55.630Z,82.20
2019-05-19T04:50:24.054Z,82.00
2019-05-19T04:52:52.467Z,81.90
2019-05-19T04:55:20.882Z,82.00
2019-05-19T04:57:50.074Z,81.90
2019-05-19T05:00:19.058Z,82.10
2019-05-19T05:02:47.622Z,82.00
2019-05-19T05:05:16.773Z,81.80
2019-05-19T05:07:45.184Z,81.70
2019-05-19T05:10:13.694Z,81.80
2019-05-19T05:12:42.105Z,81.80
2019-05-19T05:15:10.961Z,81.80
2019-05-19T05:17:39.409Z,82.00
2019-05-19T05:20:08.702Z,81.80
2019-05-19T05:22:37.134Z,81.50
2019-05-19T05:25:09.246Z,81.20
2019-05-19T05:27:37.674Z,80.80
2019-05-19T05:30:09.561Z,80.50
2019-05-19T05:32:37.985Z,80.20
2019-05-19T05:35:07.446Z,80.30
2019-05-19T05:37:35.873Z,80.30
2019-05-19T05:40:06.750Z,80.50
2019-05-19T05:42:35.303Z,80.40
2019-05-19T05:45:04.981Z,80.20
2019-05-19T05:47:33.457Z,79.80
2019-05-19T05:50:01.860Z,79.40
2019-05-19T05:52:38.677Z,79.20
2019-05-19T05:55:00.775Z,79.10
2019-05-19T05:57:29.190Z,79.00
2019-05-19T05:59:57.608Z,78.80
2019-05-19T06:02:26.031Z,78.80
2019-05-19T06:04:54.757Z,78.70
2019-05-19T06:07:23.177Z,79.50
2019-05-19T06:09:51.599Z,78.30
2019-05-19T06:12:20.010Z,77.90
2019-05-19T06:14:48.421Z,77.80
2019-05-19T06:17:17.770Z,77.40
2019-05-19T06:19:46.186Z,77.10
2019-05-19T06:22:14.922Z,76.50
2019-05-19T06:24:43.349Z,76.00
2019-05-19T06:27:11.769Z,75.90
2019-05-19T06:29:41.382Z,75.40
2019-05-19T06:32:11.435Z,75.20
2019-05-19T06:34:39.862Z,75.20
2019-05-19T06:37:08.296Z,75.20
2019-05-19T06:39:36.767Z,75.30
2019-05-19T06:42:05.189Z,76.20
2019-05-19T06:44:33.626Z,75.40
2019-05-19T06:47:02.054Z,75.60
2019-05-19T06:49:30.465Z,75.80
2019-05-19T06:51:58.870Z,76.00
2019-05-19T06:54:27.642Z,75.90
2019-05-19T06:56:56.069Z,75.70
2019-05-19T06:59:24.485Z,75.80
2019-05-19T07:01:52.899Z,75.60
2019-05-19T07:04:21.311Z,75.60
2019-05-19T07:06:49.834Z,75.40
2019-05-19T07:09:18.355Z,75.60
2019-05-19T07:11:46.784Z,75.60
2019-05-19T07:14:15.203Z,75.40
2019-05-19T07:16:43.685Z,74.50
2019-05-19T07:19:12.145Z,75.30
2019-05-19T07:21:40.624Z,75.00
2019-05-19T07:24:09.059Z,74.80
2019-05-19T07:26:37.485Z,74.70
2019-05-19T07:29:05.892Z,74.50
2019-05-19T07:31:34.309Z,74.20
2019-05-19T07:34:03.012Z,73.90
2019-05-19T07:36:31.441Z,73.60
2019-05-19T07:38:59.861Z,73.30
2019-05-19T07:41:28.277Z,73.10
2019-05-19T07:43:56.767Z,73.10
2019-05-19T07:46:25.181Z,72.90
2019-05-19T07:48:53.588Z,72.50
2019-05-19T07:51:22.025Z,72.40
2019-05-19T07:53:50.549Z,72.10
2019-05-19T07:56:19.029Z,72.10
2019-05-19T07:58:47.468Z,71.90
2019-05-19T08:01:16.078Z,71.60
2019-05-19T08:03:44.582Z,71.50
2019-05-19T08:06:13.924Z,71.70
2019-05-19T08:08:42.334Z,72.50
2019-05-19T08:11:10.767Z,71.30
2019-05-19T08:13:39.202Z,70.60
2019-05-19T08:16:07.635Z,69.80
2019-05-19T08:18:36.043Z,69.20
2019-05-19T08:21:04.501Z,68.90
2019-05-19T08:23:32.901Z,68.40
2019-05-19T08:26:01.328Z,68.20
2019-05-19T08:28:29.730Z,68.40
2019-05-19T08:30:58.137Z,68.10
2019-05-19T08:33:26.607Z,68.10
2019-05-19T08:35:55.054Z,68.10
2019-05-19T08:38:23.486Z,67.60
2019-05-19T08:40:52.192Z,67.20
2019-05-19T08:43:20.676Z,67.30
2019-05-19T08:45:49.138Z,66.10
2019-05-19T08:48:17.603Z,65.10
2019-05-19T08:50:46.270Z,64.60
2019-05-19T08:53:14.706Z,64.10
2019-05-19T08:55:43.136Z,63.70
2019-05-19T08:58:11.552Z,62.40
2019-05-19T09:00:39.954Z,61.50
2019-05-19T09:03:08.399Z,60.80
2019-05-19T09:05:36.807Z,59.90
2019-05-19T09:08:05.238Z,59.70
2019-05-19T09:10:33.652Z,59.80
2019-05-19T09:13:02.154Z,59.60
2019-05-19T09:15:30.601Z,58.70
2019-05-19T09:17:59.172Z,57.80
2019-05-19T09:20:27.590Z,56.80
2019-05-19T09:22:56.006Z,55.50
2019-05-19T09:25:24.425Z,54.60
2019-05-19T09:27:52.856Z,54.20
2019-05-19T09:30:21.260Z,54.00
2019-05-19T09:32:49.680Z,54.00
2019-05-19T09:35:18.398Z,53.90
2019-05-19T09:37:46.833Z,53.90
2019-05-19T09:40:15.397Z,53.60
2019-05-19T09:42:43.882Z,53.00
2019-05-19T09:45:13.440Z,51.50
2019-05-19T09:47:42.322Z,50.70
2019-05-19T09:50:11.076Z,50.40
2019-05-19T09:52:39.475Z,50.40
2019-05-19T09:55:08.947Z,50.20
2019-05-19T09:57:37.733Z,50.20
2019-05-19T10:00:08.528Z,49.60
2019-05-19T10:02:37.003Z,49.30
2019-05-19T10:05:06.452Z,48.60
2019-05-19T10:07:34.934Z,48.10
2019-05-19T10:10:11.745Z,48.00
2019-05-19T10:12:40.157Z,47.90
2019-05-19T10:15:10.213Z,47.30
2019-05-19T10:17:38.624Z,46.90
2019-05-19T10:20:09.290Z,46.40
2019-05-19T10:22:37.706Z,46.10
2019-05-19T10:25:21.147Z,46.20
2019-05-19T10:27:39.492Z,47.30
2019-05-19T10:30:08.582Z,47.10
2019-05-19T10:32:36.988Z,47.80
2019-05-19T10:35:05.979Z,47.30
2019-05-19T10:37:34.462Z,47.40
2019-05-19T10:40:03.351Z,47.20
2019-05-19T10:42:31.854Z,47.20
2019-05-19T10:45:00.281Z,47.50
2019-05-19T10:47:28.754Z,48.00
2019-05-19T10:49:57.193Z,48.10
2019-05-19T10:52:25.865Z,47.80
2019-05-19T10:54:54.348Z,47.90
2019-05-19T10:57:22.746Z,47.30
2019-05-19T10:59:51.174Z,47.50
2019-05-19T11:02:19.822Z,47.60
2019-05-19T11:04:48.248Z,47.40
2019-05-19T11:07:16.685Z,47.20
2019-05-19T11:09:45.078Z,47.00
2019-05-19T11:12:13.502Z,46.90
2019-05-19T11:14:42.206Z,47.00
2019-05-19T11:17:10.620Z,47.40
2019-05-19T11:19:39.137Z,47.60
2019-05-19T11:22:07.790Z,47.10
2019-05-19T11:24:36.308Z,47.80
2019-05-19T11:27:04.730Z,47.20
2019-05-19T11:29:33.164Z,47.00
2019-05-19T11:32:01.568Z,46.50
2019-05-19T11:34:29.983Z,46.60
2019-05-19T11:36:58.405Z,47.80
2019-05-19T11:39:27.134Z,47.10
2019-05-19T11:41:55.550Z,47.50
2019-05-19T11:44:24.046Z,47.30
2019-05-19T11:46:53.257Z,47.20
2019-05-19T11:49:21.690Z,47.40
2019-05-19T11:51:51.144Z,47.20
2019-05-19T11:54:19.554Z,47.20
2019-05-19T11:56:47.985Z,47.20
2019-05-19T11:59:16.390Z,47.10
2019-05-19T12:01:44.801Z,46.90
2019-05-19T12:04:13.301Z,46.70
2019-05-19T12:06:41.740Z,47.10
2019-05-19T12:09:10.150Z,46.20
2019-05-19T12:11:38.612Z,46.10
2019-05-19T12:14:07.081Z,46.40
2019-05-19T12:16:35.508Z,46.60
2019-05-19T12:19:03.906Z,46.70
2019-05-19T12:21:32.329Z,46.50
2019-05-19T12:24:00.719Z,46.30
2019-05-19T12:26:29.134Z,46.40
2019-05-19T12:28:57.550Z,46.40
2019-05-19T12:31:25.964Z,46.40
2019-05-19T12:33:54.365Z,46.20
2019-05-19T12:36:23.100Z,45.90
2019-05-19T12:38:51.565Z,46.00
2019-05-19T12:41:20.034Z,46.00
2019-05-19T12:43:48.460Z,45.90
2019-05-19T12:46:17.013Z,46.20
2019-05-19T12:48:45.499Z,46.60
2019-05-19T12:51:13.909Z,46.60
2019-05-19T12:53:42.308Z,46.60
2019-05-19T12:56:10.728Z,46.50
2019-05-19T12:58:39.165Z,46.40
2019-05-19T13:01:07.613Z,46.10
2019-05-19T13:03:36.601Z,46.10
2019-05-19T13:06:05.010Z,46.40
2019-05-19T13:08:33.427Z,46.70
2019-05-19T13:11:01.846Z,47.10
2019-05-19T13:13:30.295Z,47.40
2019-05-19T13:15:58.681Z,47.20
2019-05-19T13:18:27.108Z,47.20
2019-05-19T13:20:55.595Z,47.10
2019-05-19T13:23:24.020Z,46.30
2019-05-19T13:25:52.434Z,45.80
2019-05-19T13:28:20.863Z,45.70
2019-05-19T13:30:49.281Z,45.40
2019-05-19T13:33:17.699Z,45.20
2019-05-19T13:35:46.131Z,44.70
2019-05-19T13:38:14.571Z,44.40
2019-05-19T13:40:42.961Z,44.00
2019-05-19T13:43:11.414Z,43.50
2019-05-19T13:45:39.860Z,40.20
2019-05-19T13:48:08.293Z,38.40
2019-05-19T13:50:36.737Z,38.60
2019-05-19T13:53:05.172Z,38.80
2019-05-19T13:55:33.575Z,38.90
2019-05-19T13:58:03.678Z,39.30
2019-05-19T14:00:32.185Z,39.10
2019-05-19T14:03:00.602Z,39.80
2019-05-19T14:05:29.023Z,40.50
2019-05-19T14:07:57.425Z,41.20
2019-05-19T14:10:25.854Z,41.70
2019-05-19T14:12:54.520Z,42.00
2019-05-19T14:15:22.917Z,42.50
2019-05-19T14:17:51.317Z,43.30
2019-05-19T14:20:19.745Z,44.00
2019-05-19T14:22:48.405Z,44.80
2019-05-19T14:25:17.182Z,45.70
2019-05-19T14:27:45.584Z,46.50
2019-05-19T14:30:14.547Z,48.00
2019-05-19T14:32:42.963Z,48.60
2019-05-19T14:35:11.473Z,50.20
2019-05-19T14:37:39.899Z,50.60
2019-05-19T14:40:08.457Z,51.50
2019-05-19T14:42:54.823Z,52.40
2019-05-19T14:45:23.316Z,53.50
2019-05-19T14:47:52.118Z,54.80
2019-05-19T14:50:22.337Z,55.90
2019-05-19T14:52:50.748Z,56.90
2019-05-19T14:55:19.214Z,57.10
2019-05-19T14:57:47.666Z,57.50
2019-05-19T15:00:18.470Z,58.10
2019-05-19T15:02:46.879Z,58.70
2019-05-19T15:05:15.373Z,59.00
2019-05-19T15:07:43.893Z,59.40
2019-05-19T15:10:12.798Z,59.80
2019-05-19T15:12:41.226Z,59.90
2019-05-19T15:15:09.901Z,60.50
2019-05-19T15:17:38.329Z,60.80
2019-05-19T15:20:08.424Z,61.10
2019-05-19T15:22:36.899Z,61.20
2019-05-19T15:25:06.465Z,61.60
2019-05-19T15:27:34.859Z,62.00
2019-05-19T15:30:12.942Z,62.10
2019-05-19T15:32:35.059Z,62.50
2019-05-19T15:35:04.603Z,62.40
2019-05-19T15:37:33.048Z,62.50
2019-05-19T15:40:01.463Z,62.60
2019-05-19T15:42:29.934Z,62.60
2019-05-19T15:44:58.353Z,62.60
2019-05-19T15:47:26.912Z,62.80
2019-05-19T15:49:55.323Z,63.00
2019-05-19T15:52:23.730Z,63.00
2019-05-19T15:54:52.142Z,63.20
2019-05-19T15:57:20.565Z,63.30
2019-05-19T15:59:48.972Z,63.30
2019-05-19T16:02:17.403Z,63.20
2019-05-19T16:04:45.846Z,63.30
2019-05-19T16:07:14.336Z,63.30
2019-05-19T16:09:42.750Z,63.20
2019-05-19T16:12:11.190Z,63.30
2019-05-19T16:14:39.614Z,63.40
2019-05-19T16:17:08.056Z,64.10
2019-05-19T16:19:36.444Z,64.00
2019-05-19T16:22:04.943Z,63.70
2019-05-19T16:24:33.396Z,64.10
2019-05-19T16:27:02.042Z,64.50
2019-05-19T16:29:30.460Z,65.00
2019-05-19T16:31:58.951Z,65.70
2019-05-19T16:34:27.471Z,66.10
2019-05-19T16:36:55.930Z,66.40
2019-05-19T16:39:24.387Z,66.20
2019-05-19T16:41:52.794Z,66.40
2019-05-19T16:44:21.220Z,67.00
2019-05-19T16:46:49.637Z,67.60
2019-05-19T16:49:18.038Z,67.60
2019-05-19T16:51:46.484Z,67.70
2019-05-19T16:54:16.541Z,67.90
2019-05-19T16:56:44.985Z,68.10
2019-05-19T16:59:13.378Z,68.20
2019-05-19T17:01:42.115Z,68.00
2019-05-19T17:04:10.542Z,67.70
2019-05-19T17:06:38.941Z,67.40
2019-05-19T17:09:07.672Z,67.50
2019-05-19T17:11:36.072Z,68.90
2019-05-19T17:14:04.685Z,69.40
2019-05-19T17:16:33.079Z,70.00
2019-05-19T17:19:01.837Z,70.60
2019-05-19T17:21:30.293Z,70.90
2019-05-19T17:23:58.701Z,71.20
2019-05-19T17:26:27.189Z,71.50
2019-05-19T17:29:00.809Z,71.60
2019-05-19T17:31:25.772Z,71.60
2019-05-19T17:33:55.754Z,72.00
2019-05-19T17:36:27.291Z,72.00
2019-05-19T17:38:54.293Z,72.10
2019-05-19T17:41:22.708Z,72.30
2019-05-19T17:43:51.408Z,72.20
2019-05-19T17:46:19.844Z,72.10
2019-05-19T17:48:48.299Z,72.00
2019-05-19T17:51:16.753Z,71.70
2019-05-19T17:53:45.143Z,71.60
2019-05-19T17:56:15.884Z,71.30
2019-05-19T17:58:46.100Z,71.20
2019-05-19T18:01:14.504Z,71.20
2019-05-19T18:03:44.254Z,71.10
2019-05-19T18:06:12.657Z,71.20
2019-05-19T18:08:41.205Z,71.40
2019-05-19T18:11:09.651Z,71.70
2019-05-19T18:13:38.410Z,71.90
2019-05-19T18:16:06.809Z,71.90
2019-05-19T18:18:35.245Z,71.90
2019-05-19T18:21:03.638Z,71.80
2019-05-19T18:23:32.059Z,71.70
2019-05-19T18:26:00.493Z,71.70
2019-05-19T18:28:28.878Z,71.80
2019-05-19T18:30:57.372Z,71.90
2019-05-19T18:33:26.703Z,72.20
2019-05-19T18:35:55.116Z,72.50
2019-05-19T18:38:23.530Z,72.50
2019-05-19T18:40:51.925Z,72.90
2019-05-19T18:43:20.335Z,73.10
2019-05-19T18:45:48.763Z,73.10
2019-05-19T18:48:17.157Z,73.40
2019-05-19T18:50:45.573Z,73.20
2019-05-19T18:53:13.978Z,73.20
2019-05-19T18:55:42.409Z,73.30
2019-05-19T18:58:10.806Z,73.40
2019-05-19T19:00:39.529Z,73.20
2019-05-19T19:03:07.991Z,73.30
2019-05-19T19:05:36.397Z,73.20
2019-05-19T19:08:04.840Z,73.20
2019-05-19T19:10:33.306Z,73.10
2019-05-19T19:13:01.828Z,73.00
2019-05-19T19:15:30.331Z,73.00
2019-05-19T19:17:58.867Z,72.90
2019-05-19T19:20:27.582Z,72.80
2019-05-19T19:22:56.332Z,72.70
2019-05-19T19:25:24.750Z,72.80
2019-05-19T19:27:53.225Z,72.80
2019-05-19T19:30:21.701Z,72.80
2019-05-19T19:32:50.133Z,72.80
2019-05-19T19:35:18.562Z,72.80
2019-05-19T19:37:46.983Z,72.40
2019-05-19T19:40:18.465Z,72.80
2019-05-19T19:42:46.887Z,72.70
2019-05-19T19:45:15.390Z,72.60
2019-05-19T19:47:43.823Z,73.30
2019-05-19T19:50:12.257Z,72.20
2019-05-19T19:52:40.974Z,71.90
2019-05-19T19:55:09.381Z,71.90
2019-05-19T19:57:37.805Z,72.00
2019-05-19T20:00:17.974Z,71.90
2019-05-19T20:02:36.905Z,72.00
2019-05-19T20:05:06.058Z,71.90
2019-05-19T20:07:34.495Z,72.00
2019-05-19T20:10:03.586Z,72.20
2019-05-19T20:12:32.015Z,73.20
2019-05-19T20:15:00.531Z,72.40
2019-05-19T20:17:29.062Z,72.30
2019-05-19T20:19:57.467Z,72.40
2019-05-19T20:22:25.869Z,72.70
2019-05-19T20:24:54.739Z,73.00
2019-05-19T20:27:23.177Z,73.00
2019-05-19T20:29:51.659Z,73.10
2019-05-19T20:32:20.089Z,73.00
2019-05-19T20:34:48.552Z,73.00
2019-05-19T20:37:17.968Z,72.90
2019-05-19T20:39:46.407Z,72.80
2019-05-19T20:42:14.827Z,72.60
2019-05-19T20:44:43.558Z,72.50
2019-05-19T20:47:11.951Z,72.40
2019-05-19T20:49:41.177Z,72.60
2019-05-19T20:52:09.573Z,72.80
2019-05-19T20:54:38.005Z,72.80
2019-05-19T20:57:06.408Z,73.40
2019-05-19T20:59:34.821Z,74.50
2019-05-19T21:02:03.230Z,77.10
2019-05-19T21:04:31.659Z,79.10
2019-05-19T21:07:00.065Z,78.90
2019-05-19T21:09:28.530Z,73.90
2019-05-19T21:11:56.935Z,73.80
2019-05-19T21:14:25.368Z,74.50
2019-05-19T21:16:53.844Z,74.90
2019-05-19T21:19:22.314Z,75.30
2019-05-19T21:21:50.764Z,75.70
2019-05-19T21:24:19.193Z,75.90
2019-05-19T21:26:47.602Z,76.20
2019-05-19T21:29:16.031Z,76.50
2019-05-19T21:31:44.771Z,76.80
2019-05-19T21:34:13.176Z,77.00
2019-05-19T21:36:41.677Z,77.20
2019-05-19T21:39:10.085Z,78.00
2019-05-19T21:41:38.530Z,77.40
2019-05-19T21:44:07.098Z,77.60
2019-05-19T21:46:35.518Z,77.90
2019-05-19T21:49:03.946Z,78.00
2019-05-19T21:51:32.386Z,78.30
2019-05-19T21:54:00.805Z,78.50
2019-05-19T21:56:29.223Z,78.70
2019-05-19T21:58:57.663Z,78.70
2019-05-19T22:01:26.156Z,78.90
2019-05-19T22:03:54.596Z,79.00
2019-05-19T22:06:24.709Z,78.90
2019-05-19T22:08:53.128Z,78.90
2019-05-19T22:11:21.530Z,79.10
2019-05-19T22:13:49.959Z,79.20
2019-05-19T22:16:18.366Z,79.20
2019-05-19T22:18:46.788Z,79.30
2019-05-19T22:21:15.239Z,79.30
2019-05-19T22:23:43.651Z,80.20
2019-05-19T22:26:12.123Z,79.40
2019-05-19T22:28:40.530Z,79.50
2019-05-19T22:31:09.182Z,79.50
2019-05-19T22:33:37.613Z,79.60
2019-05-19T22:36:06.053Z,79.60
2019-05-19T22:38:34.483Z,79.60
2019-05-19T22:41:02.891Z,79.60
2019-05-19T22:43:31.313Z,79.80
2019-05-19T22:45:59.731Z,79.70
2019-05-19T22:48:28.228Z,79.90
2019-05-19T22:50:56.648Z,79.10
2019-05-19T22:53:25.046Z,80.00
2019-05-19T22:55:53.462Z,79.20
2019-05-19T22:58:21.878Z,80.10
2019-05-19T23:00:50.558Z,80.30
2019-05-19T23:03:19.105Z,80.30
2019-05-19T23:05:47.510Z,81.40
2019-05-19T23:08:15.934Z,80.70
2019-05-19T23:10:44.373Z,80.80
2019-05-19T23:13:12.827Z,81.00
2019-05-19T23:15:41.331Z,81.10
2019-05-19T23:18:09.756Z,81.00
2019-05-19T23:20:38.211Z,81.10
2019-05-19T23:23:06.963Z,81.10
2019-05-19T23:25:35.382Z,81.20
2019-05-19T23:28:03.881Z,81.40
2019-05-19T23:30:32.287Z,81.70
2019-05-19T23:33:00.741Z,81.60
2019-05-19T23:35:29.144Z,81.80
2019-05-19T23:37:57.588Z,81.90
2019-05-19T23:40:26.051Z,81.80
2019-05-19T23:42:54.495Z,81.90
2019-05-19T23:45:22.912Z,82.00
2019-05-19T23:47:51.328Z,82.10
2019-05-19T23:50:19.809Z,82.20
2019-05-19T23:52:48.217Z,82.20
2019-05-19T23:55:16.696Z,82.30
2019-05-19T23:57:45.117Z,82.40
